createdAt,value
2022-09-11T00:00:59.792Z,20.26
2022-09-11T00:03:32.606Z,20.23
2022-09-11T00:06:10.601Z,20.21
2022-09-11T00:08:43.717Z,20.28
2022-09-11T00:11:18.607Z,20.25
2022-09-11T00:13:54.262Z,20.30
2022-09-11T00:16:30.226Z,20.32
2022-09-11T00:19:06.157Z,20.27
2022-09-11T00:21:40.334Z,20.15
2022-09-11T00:24:13.244Z,20.20
2022-09-11T00:26:47.800Z,20.21
2022-09-11T00:29:20.779Z,20.18
2022-09-11T00:31:53.855Z,20.21
2022-09-11T00:34:26.387Z,20.08
2022-09-11T00:37:00.338Z,20.08
2022-09-11T00:39:34.778Z,20.05
2022-09-11T00:42:08.155Z,20.02
2022-09-11T00:45:03.139Z,19.96
2022-09-11T00:47:37.265Z,19.89
2022-09-11T00:50:13.557Z,19.99
2022-09-11T00:52:53.248Z,19.95
2022-09-11T00:55:28.784Z,19.94
2022-09-11T00:58:05.920Z,19.92
2022-09-11T01:00:40.467Z,19.95
2022-09-11T01:03:13.550Z,19.91
2022-09-11T01:05:48.286Z,19.88
2022-09-11T01:08:23.239Z,19.83
2022-09-11T01:11:12.882Z,19.89
2022-09-11T01:13:52.767Z,19.78
2022-09-11T01:16:34.750Z,19.82
2022-09-11T01:19:20.120Z,19.85
2022-09-11T01:22:08.402Z,19.75
2022-09-11T01:25:06.952Z,19.75
2022-09-11T01:27:50.282Z,19.77
2022-09-11T01:30:23.557Z,19.72
2022-09-11T01:33:08.615Z,19.69
2022-09-11T01:35:51.043Z,19.68
2022-09-11T01:38:31.672Z,19.66
2022-09-11T01:41:09.863Z,19.71
2022-09-11T01:43:51.597Z,19.70
2022-09-11T01:46:27.813Z,19.69
2022-09-11T01:49:06.670Z,19.69
2022-09-11T01:51:41.481Z,19.65
2022-09-11T01:54:18.814Z,19.65
2022-09-11T01:56:56.469Z,19.70
2022-09-11T01:59:37.046Z,19.78
2022-09-11T02:02:15.031Z,19.80
2022-09-11T02:04:53.103Z,19.85
2022-09-11T02:07:32.131Z,19.83
2022-09-11T02:10:10.396Z,19.77
2022-09-11T02:12:47.549Z,19.79
2022-09-11T02:15:25.358Z,19.75
2022-09-11T02:18:03.341Z,19.69
2022-09-11T02:20:38.483Z,19.61
2022-09-11T02:23:11.196Z,19.55
2022-09-11T02:25:44.073Z,19.52
2022-09-11T02:28:17.758Z,19.46
2022-09-11T02:30:52.000Z,19.48
2022-09-11T02:33:33.119Z,19.43
2022-09-11T02:36:20.242Z,19.40
2022-09-11T02:39:10.803Z,19.33
2022-09-11T02:41:55.276Z,19.31
2022-09-11T02:44:35.442Z,19.35
2022-09-11T02:47:20.530Z,19.38
2022-09-11T02:50:07.077Z,19.36
2022-09-11T02:52:50.170Z,19.33
2022-09-11T02:55:32.910Z,19.29
2022-09-11T02:58:10.969Z,19.23
2022-09-11T03:00:48.319Z,19.25
2022-09-11T03:03:22.415Z,19.22
2022-09-11T03:05:55.373Z,19.17
2022-09-11T03:08:31.491Z,19.12
2022-09-11T03:11:04.753Z,19.09
2022-09-11T03:13:38.090Z,19.09
2022-09-11T03:16:12.234Z,19.08
2022-09-11T03:18:46.375Z,19.05
2022-09-11T03:21:20.285Z,18.99
2022-09-11T03:23:52.971Z,19.00
2022-09-11T03:26:26.256Z,19.00
2022-09-11T03:28:59.066Z,18.98
2022-09-11T03:31:31.803Z,18.98
2022-09-11T03:34:06.708Z,18.90
2022-09-11T03:36:40.194Z,18.85
2022-09-11T03:39:13.346Z,18.90
2022-09-11T03:41:46.021Z,18.86
2022-09-11T03:44:18.967Z,18.77
2022-09-11T03:46:52.697Z,18.78
2022-09-11T03:49:26.979Z,18.80
2022-09-11T03:52:01.078Z,18.77
2022-09-11T03:54:34.389Z,18.73
2022-09-11T03:57:09.631Z,18.76
2022-09-11T03:59:44.010Z,18.73
2022-09-11T04:02:16.801Z,18.77
2022-09-11T04:04:51.071Z,18.68
2022-09-11T04:07:24.419Z,18.66
2022-09-11T04:09:57.230Z,18.63
2022-09-11T04:12:30.052Z,18.62
2022-09-11T04:15:02.846Z,18.59
2022-09-11T04:17:37.523Z,18.61
2022-09-11T04:20:11.911Z,18.61
2022-09-11T04:22:45.257Z,18.58
2022-09-11T04:25:18.888Z,18.50
2022-09-11T04:27:51.571Z,18.50
2022-09-11T04:30:24.295Z,18.45
2022-09-11T04:32:58.190Z,18.48
2022-09-11T04:35:32.742Z,18.45
2022-09-11T04:38:06.827Z,18.44
2022-09-11T04:40:41.004Z,18.44
2022-09-11T04:43:13.652Z,18.42
2022-09-11T04:45:46.476Z,18.40
2022-09-11T04:48:19.095Z,18.37
2022-09-11T04:51:02.663Z,18.38
2022-09-11T04:53:36.136Z,18.33
2022-09-11T04:56:12.338Z,18.34
2022-09-11T04:58:55.081Z,18.28
2022-09-11T05:01:32.464Z,18.31
2022-09-11T05:04:05.285Z,18.28
2022-09-11T05:06:40.062Z,18.27
2022-09-11T05:09:18.365Z,18.29
2022-09-11T05:11:52.890Z,18.30
2022-09-11T05:14:28.143Z,18.19
2022-09-11T05:17:02.293Z,18.19
2022-09-11T05:19:36.576Z,18.18
2022-09-11T05:22:10.810Z,18.14
2022-09-11T05:24:47.800Z,18.10
2022-09-11T05:27:20.588Z,18.13
2022-09-11T05:29:53.310Z,18.14
2022-09-11T05:32:26.126Z,18.15
2022-09-11T05:34:59.487Z,18.11
2022-09-11T05:37:33.711Z,18.09
2022-09-11T05:40:07.976Z,18.02
2022-09-11T05:42:40.838Z,18.03
2022-09-11T05:45:13.639Z,18.01
2022-09-11T05:47:46.630Z,17.91
2022-09-11T05:50:21.586Z,17.99
2022-09-11T05:52:56.310Z,17.95
2022-09-11T05:55:29.374Z,17.99
2022-09-11T05:58:03.007Z,18.01
2022-09-11T06:00:35.631Z,18.05
2022-09-11T06:03:10.606Z,18.01
2022-09-11T06:05:46.391Z,18.05
2022-09-11T06:08:20.429Z,18.04
2022-09-11T06:10:53.062Z,18.04
2022-09-11T06:13:26.583Z,18.02
2022-09-11T06:15:59.300Z,18.03
2022-09-11T06:18:33.886Z,18.01
2022-09-11T06:21:11.832Z,18.07
2022-09-11T06:23:57.002Z,18.00
2022-09-11T06:26:30.432Z,18.08
2022-09-11T06:29:03.107Z,18.03
2022-09-11T06:31:36.760Z,18.05
2022-09-11T06:34:09.621Z,18.11
2022-09-11T06:36:45.165Z,18.08
2022-09-11T06:39:22.816Z,18.13
2022-09-11T06:41:56.258Z,18.15
2022-09-11T06:44:35.463Z,18.17
2022-09-11T06:47:09.071Z,18.21
2022-09-11T06:49:42.403Z,18.31
2022-09-11T06:52:35.939Z,18.38
2022-09-11T06:55:37.000Z,18.31
2022-09-11T06:58:13.754Z,18.32
2022-09-11T07:00:47.637Z,18.34
2022-09-11T07:03:20.552Z,18.37
2022-09-11T07:05:56.045Z,18.39
2022-09-11T07:08:29.762Z,18.49
2022-09-11T07:11:05.569Z,18.58
2022-09-11T07:13:40.609Z,18.78
2022-09-11T07:16:15.116Z,18.82
2022-09-11T07:18:49.378Z,18.79
2022-09-11T07:21:28.527Z,18.96
2022-09-11T07:24:05.159Z,19.01
2022-09-11T07:26:46.532Z,19.06
2022-09-11T07:29:25.049Z,19.14
2022-09-11T07:31:58.577Z,19.22
2022-09-11T07:34:33.251Z,19.29
2022-09-11T07:37:10.382Z,19.42
2022-09-11T07:39:44.530Z,19.50
2022-09-11T07:42:25.529Z,19.68
2022-09-11T07:44:58.165Z,19.69
2022-09-11T07:47:34.676Z,19.85
2022-09-11T07:50:08.829Z,19.86
2022-09-11T07:52:42.513Z,19.94
2022-09-11T07:55:15.246Z,19.97
2022-09-11T07:57:52.597Z,20.19
2022-09-11T08:00:26.051Z,20.15
2022-09-11T08:03:15.277Z,20.14
2022-09-11T08:05:47.922Z,20.17
2022-09-11T08:08:21.222Z,20.26
2022-09-11T08:10:55.512Z,20.38
2022-09-11T08:13:30.112Z,20.58
2022-09-11T08:16:04.215Z,20.67
2022-09-11T08:18:37.241Z,20.63
2022-09-11T08:21:13.121Z,20.72
2022-09-11T08:23:46.641Z,20.80
2022-09-11T08:26:22.008Z,20.87
2022-09-11T08:28:59.871Z,21.14
2022-09-11T08:31:36.117Z,21.25
2022-09-11T08:34:10.793Z,21.32
2022-09-11T08:36:44.961Z,21.43
2022-09-11T08:39:18.080Z,21.53
2022-09-11T08:42:01.282Z,21.63
2022-09-11T08:44:44.046Z,21.72
2022-09-11T08:47:26.913Z,21.80
2022-09-11T08:50:06.842Z,21.92
2022-09-11T08:52:41.337Z,22.09
2022-09-11T08:55:22.847Z,22.13
2022-09-11T08:58:02.866Z,22.17
2022-09-11T09:00:46.051Z,22.32
2022-09-11T09:03:44.780Z,22.39
2022-09-11T09:06:34.047Z,22.51
2022-09-11T09:09:14.425Z,22.63
2022-09-11T09:11:55.962Z,22.80
2022-09-11T09:14:53.466Z,22.86
2022-09-11T09:17:30.295Z,22.92
2022-09-11T09:20:09.594Z,23.06
2022-09-11T09:22:49.275Z,23.17
2022-09-11T09:25:24.152Z,23.33
2022-09-11T09:28:08.754Z,23.46
2022-09-11T09:30:49.020Z,23.63
2022-09-11T09:33:31.686Z,23.68
2022-09-11T09:36:16.678Z,23.74
2022-09-11T09:38:50.296Z,23.92
2022-09-11T09:41:54.178Z,24.13
2022-09-11T09:44:54.760Z,24.26
2022-09-11T09:47:27.612Z,24.42
2022-09-11T09:50:01.607Z,24.58
2022-09-11T09:52:35.959Z,24.70
2022-09-11T09:55:16.388Z,24.88
2022-09-11T09:57:49.289Z,25.00
2022-09-11T10:00:21.957Z,25.11
2022-09-11T10:02:58.116Z,25.31
2022-09-11T10:05:35.491Z,25.43
2022-09-11T10:08:24.748Z,25.50
2022-09-11T10:10:59.203Z,25.62
2022-09-11T10:13:33.897Z,25.69
2022-09-11T10:16:20.497Z,25.78
2022-09-11T10:18:54.361Z,25.70
2022-09-11T10:21:33.335Z,25.72
2022-09-11T10:24:23.508Z,25.78
2022-09-11T10:26:58.270Z,25.87
2022-09-11T10:29:32.045Z,26.04
2022-09-11T10:32:05.304Z,26.18
2022-09-11T10:34:40.427Z,26.26
2022-09-11T10:37:26.049Z,26.35
2022-09-11T10:40:07.293Z,26.36
2022-09-11T10:42:41.405Z,26.38
2022-09-11T10:45:17.191Z,26.48
2022-09-11T10:47:49.830Z,26.62
2022-09-11T10:50:28.736Z,26.77
2022-09-11T10:53:17.335Z,26.81
2022-09-11T10:56:01.661Z,26.91
2022-09-11T10:58:38.991Z,26.95
2022-09-11T11:01:11.850Z,27.02
2022-09-11T11:03:45.067Z,27.10
2022-09-11T11:06:32.547Z,27.19
2022-09-11T11:09:28.993Z,27.38
2022-09-11T11:12:21.049Z,27.37
2022-09-11T11:15:13.672Z,27.48
2022-09-11T11:17:53.005Z,27.59
2022-09-11T11:20:34.885Z,27.75
2022-09-11T11:23:33.883Z,27.78
2022-09-11T11:26:31.607Z,27.86
2022-09-11T11:29:18.373Z,28.09
2022-09-11T11:32:09.735Z,28.22
2022-09-11T11:35:01.492Z,28.35
2022-09-11T11:37:37.400Z,28.46
2022-09-11T11:40:19.837Z,28.66
2022-09-11T11:42:58.159Z,28.83
2022-09-11T11:45:36.437Z,28.89
2022-09-11T11:48:15.617Z,28.98
2022-09-11T11:50:52.691Z,29.04
2022-09-11T11:53:28.704Z,29.08
2022-09-11T11:56:05.874Z,29.16
2022-09-11T11:58:48.152Z,29.24
2022-09-11T12:01:25.711Z,29.30
2022-09-11T12:04:05.010Z,29.32
2022-09-11T12:06:37.656Z,29.42
2022-09-11T12:09:10.886Z,29.44
2022-09-11T12:11:47.268Z,29.48
2022-09-11T12:14:28.517Z,29.53
2022-09-11T12:17:18.859Z,29.69
2022-09-11T12:20:32.317Z,29.52
2022-09-11T12:23:06.767Z,29.45
2022-09-11T12:25:53.549Z,29.55
2022-09-11T12:28:26.974Z,29.46
2022-09-11T12:31:06.540Z,29.49
2022-09-11T12:33:55.735Z,28.56
2022-09-11T12:36:44.266Z,28.73
2022-09-11T12:39:27.002Z,29.12
2022-09-11T12:42:37.103Z,29.37
2022-09-11T12:45:32.364Z,29.08
2022-09-11T12:48:12.657Z,28.70
2022-09-11T12:50:56.229Z,28.60
2022-09-11T12:53:32.352Z,28.80
2022-09-11T12:56:07.502Z,28.78
2022-09-11T12:58:41.785Z,28.63
2022-09-11T13:01:20.849Z,28.79
2022-09-11T13:03:59.372Z,28.56
2022-09-11T13:06:42.396Z,28.50
2022-09-11T13:09:22.465Z,28.11
2022-09-11T13:11:56.805Z,27.98
2022-09-11T13:14:48.143Z,27.93
2022-09-11T13:17:28.491Z,27.78
2022-09-11T13:20:23.386Z,27.67
2022-09-11T13:23:11.457Z,27.67
2022-09-11T13:25:45.017Z,27.65
2022-09-11T13:28:23.302Z,27.70
2022-09-11T13:31:02.155Z,27.61
2022-09-11T13:33:35.046Z,27.57
2022-09-11T13:36:14.116Z,27.56
2022-09-11T13:38:54.360Z,27.44
2022-09-11T13:41:30.021Z,27.31
2022-09-11T13:44:04.156Z,27.39
2022-09-11T13:46:36.837Z,27.27
2022-09-11T13:49:28.611Z,27.24
2022-09-11T13:52:05.673Z,27.59
2022-09-11T13:54:42.587Z,27.78
2022-09-11T13:57:17.856Z,27.52
2022-09-11T13:59:57.058Z,27.46
2022-09-11T14:02:40.666Z,27.34
2022-09-11T14:05:21.016Z,27.39
2022-09-11T14:08:01.129Z,27.44
2022-09-11T14:10:38.403Z,27.54
2022-09-11T14:13:18.517Z,27.53
2022-09-11T14:15:53.902Z,27.54
2022-09-11T14:18:33.084Z,27.46
2022-09-11T14:21:13.438Z,27.29
2022-09-11T14:23:52.950Z,27.24
2022-09-11T14:26:40.359Z,27.26
2022-09-11T14:29:24.815Z,27.23
2022-09-11T14:32:31.119Z,27.19
2022-09-11T14:35:06.486Z,27.08
2022-09-11T14:37:43.568Z,27.25
2022-09-11T14:40:19.385Z,27.22
2022-09-11T14:42:52.106Z,27.21
2022-09-11T14:45:26.916Z,27.30
2022-09-11T14:48:00.827Z,27.25
2022-09-11T14:50:33.636Z,27.24
2022-09-11T14:53:06.179Z,26.93
2022-09-11T14:55:40.101Z,26.99
2022-09-11T14:58:12.778Z,27.09
2022-09-11T15:00:45.358Z,27.21
2022-09-11T15:03:19.222Z,27.25
2022-09-11T15:05:56.089Z,27.27
2022-09-11T15:08:28.751Z,27.35
2022-09-11T15:11:02.751Z,27.30
2022-09-11T15:13:35.468Z,27.27
2022-09-11T15:16:09.460Z,27.21
2022-09-11T15:18:42.109Z,27.17
2022-09-11T15:21:15.142Z,26.92
2022-09-11T15:23:50.011Z,26.83
2022-09-11T15:26:24.324Z,26.87
2022-09-11T15:28:57.032Z,26.89
2022-09-11T15:31:30.035Z,26.94
2022-09-11T15:34:07.241Z,26.96
2022-09-11T15:36:41.581Z,26.84
2022-09-11T15:39:16.971Z,26.70
2022-09-11T15:41:52.074Z,26.54
2022-09-11T15:44:27.058Z,26.45
2022-09-11T15:47:00.036Z,26.42
2022-09-11T15:49:32.700Z,26.37
2022-09-11T15:52:05.476Z,26.49
2022-09-11T15:54:38.047Z,26.54
2022-09-11T15:57:12.476Z,26.53
2022-09-11T15:59:45.259Z,26.45
2022-09-11T16:02:20.431Z,26.35
2022-09-11T16:04:54.038Z,26.24
2022-09-11T16:07:26.893Z,26.17
2022-09-11T16:09:59.814Z,26.08
2022-09-11T16:12:34.730Z,26.12
2022-09-11T16:15:08.318Z,25.99
2022-09-11T16:17:40.998Z,25.96
2022-09-11T16:20:15.297Z,25.91
2022-09-11T16:22:48.414Z,25.99
2022-09-11T16:25:21.949Z,25.85
2022-09-11T16:27:59.720Z,25.72
2022-09-11T16:30:43.588Z,25.73
2022-09-11T16:33:17.758Z,25.68
2022-09-11T16:35:58.521Z,25.62
2022-09-11T16:38:31.346Z,25.63
2022-09-11T16:41:05.057Z,25.55
2022-09-11T16:43:40.744Z,25.34
2022-09-11T16:46:15.338Z,25.31
2022-09-11T16:48:53.266Z,25.08
2022-09-11T16:51:28.062Z,25.19
2022-09-11T16:54:00.923Z,25.04
2022-09-11T16:56:33.831Z,25.19
2022-09-11T16:59:07.689Z,24.87
2022-09-11T17:01:40.500Z,24.49
2022-09-11T17:04:13.015Z,24.78
2022-09-11T17:06:45.647Z,24.64
2022-09-11T17:09:18.387Z,24.45
2022-09-11T17:11:51.155Z,24.51
2022-09-11T17:14:25.350Z,24.65
2022-09-11T17:16:58.139Z,24.59
2022-09-11T17:19:30.820Z,24.42
2022-09-11T17:22:03.845Z,24.63
2022-09-11T17:24:37.616Z,24.77
2022-09-11T17:27:10.256Z,24.80
2022-09-11T17:29:44.930Z,24.70
2022-09-11T17:32:29.203Z,24.74
2022-09-11T17:35:02.319Z,24.71
2022-09-11T17:37:34.805Z,24.69
2022-09-11T17:40:08.949Z,24.65
2022-09-11T17:42:42.594Z,24.59
2022-09-11T17:45:16.731Z,24.57
2022-09-11T17:47:49.501Z,24.58
2022-09-11T17:50:22.368Z,24.48
2022-09-11T17:52:55.093Z,24.45
2022-09-11T17:55:29.499Z,24.39
2022-09-11T17:58:02.220Z,24.38
2022-09-11T18:00:36.316Z,24.37
2022-09-11T18:03:09.082Z,24.32
2022-09-11T18:05:42.698Z,24.28
2022-09-11T18:08:16.300Z,24.26
2022-09-11T18:10:52.792Z,24.22
2022-09-11T18:13:25.429Z,24.17
2022-09-11T18:15:59.647Z,24.07
2022-09-11T18:18:33.428Z,24.03
2022-09-11T18:21:07.038Z,24.08
2022-09-11T18:23:42.491Z,23.99
2022-09-11T18:26:23.983Z,23.95
2022-09-11T18:29:00.031Z,23.90
2022-09-11T18:31:39.927Z,23.87
2022-09-11T18:34:14.093Z,23.83
2022-09-11T18:36:46.874Z,23.78
2022-09-11T18:39:21.127Z,23.75
2022-09-11T18:41:53.945Z,23.64
2022-09-11T18:44:26.765Z,23.64
2022-09-11T18:47:01.256Z,23.58
2022-09-11T18:49:34.758Z,23.54
2022-09-11T18:52:08.766Z,23.49
2022-09-11T18:54:41.527Z,23.38
2022-09-11T18:57:14.192Z,23.34
2022-09-11T18:59:46.900Z,23.30
2022-09-11T19:02:20.959Z,23.29
2022-09-11T19:04:53.735Z,23.27
2022-09-11T19:07:26.465Z,23.23
2022-09-11T19:10:00.340Z,23.14
2022-09-11T19:12:33.337Z,23.12
2022-09-11T19:15:07.143Z,23.12
2022-09-11T19:17:42.059Z,23.08
2022-09-11T19:20:14.921Z,22.97
2022-09-11T19:22:47.828Z,22.93
2022-09-11T19:25:20.414Z,22.93
2022-09-11T19:27:53.345Z,22.92
2022-09-11T19:30:26.012Z,22.93
2022-09-11T19:33:00.505Z,22.83
2022-09-11T19:35:33.168Z,22.77
2022-09-11T19:38:05.823Z,22.69
2022-09-11T19:40:39.559Z,22.61
2022-09-11T19:43:12.781Z,22.58
2022-09-11T19:45:45.789Z,22.58
2022-09-11T19:48:19.726Z,22.54
2022-09-11T19:50:52.447Z,22.57
2022-09-11T19:53:25.192Z,22.47
2022-09-11T19:56:00.290Z,22.45
2022-09-11T19:58:33.593Z,22.40
2022-09-11T20:01:08.890Z,22.39
2022-09-11T20:03:45.223Z,22.36
2022-09-11T20:06:20.572Z,22.29
2022-09-11T20:09:07.963Z,22.28
2022-09-11T20:11:47.183Z,22.20
2022-09-11T20:14:20.179Z,22.16
2022-09-11T20:16:52.825Z,22.15
2022-09-11T20:19:27.046Z,22.11
2022-09-11T20:22:00.607Z,22.11
2022-09-11T20:24:33.622Z,22.04
2022-09-11T20:27:06.654Z,21.99
2022-09-11T20:29:40.261Z,22.02
2022-09-11T20:32:13.155Z,21.93
2022-09-11T20:34:47.151Z,21.86
2022-09-11T20:37:19.875Z,21.84
2022-09-11T20:39:52.789Z,21.78
2022-09-11T20:42:25.432Z,21.74
2022-09-11T20:45:00.463Z,21.72
2022-09-11T20:47:33.357Z,21.68
2022-09-11T20:50:09.369Z,21.66
2022-09-11T20:52:43.970Z,21.64
2022-09-11T20:55:16.783Z,21.64
2022-09-11T20:57:49.437Z,21.63
2022-09-11T21:00:22.230Z,21.58
2022-09-11T21:02:55.004Z,21.54
2022-09-11T21:05:28.976Z,21.51
2022-09-11T21:08:01.745Z,21.47
2022-09-11T21:10:37.193Z,21.43
2022-09-11T21:13:11.612Z,21.46
2022-09-11T21:15:44.943Z,21.41
2022-09-11T21:18:17.946Z,21.35
2022-09-11T21:20:55.566Z,21.30
2022-09-11T21:23:28.391Z,21.32
2022-09-11T21:26:01.110Z,21.29
2022-09-11T21:28:33.791Z,21.29
2022-09-11T21:31:08.185Z,21.23
2022-09-11T21:33:41.267Z,21.21
2022-09-11T21:36:15.681Z,21.19
2022-09-11T21:38:48.640Z,21.12
2022-09-11T21:41:21.244Z,21.11
2022-09-11T21:43:54.002Z,21.07
2022-09-11T21:46:26.789Z,21.09
2022-09-11T21:48:59.905Z,21.06
2022-09-11T21:51:34.085Z,21.04
2022-09-11T21:54:06.951Z,20.99
2022-09-11T21:56:39.647Z,20.95
2022-09-11T21:59:12.268Z,20.97
2022-09-11T22:01:45.020Z,20.95
2022-09-11T22:04:17.682Z,20.91
2022-09-11T22:06:51.993Z,20.88
2022-09-11T22:09:24.686Z,20.83
2022-09-11T22:11:59.850Z,20.82
2022-09-11T22:14:32.914Z,20.76
2022-09-11T22:17:05.888Z,20.79
2022-09-11T22:19:38.654Z,20.76
2022-09-11T22:22:13.186Z,20.75
2022-09-11T22:24:45.976Z,20.70
2022-09-11T22:27:18.813Z,20.73
2022-09-11T22:29:54.155Z,20.69
2022-09-11T22:32:27.121Z,20.67
2022-09-11T22:34:59.650Z,20.67
2022-09-11T22:37:33.635Z,20.56
2022-09-11T22:40:07.904Z,20.56
2022-09-11T22:42:40.643Z,20.57
2022-09-11T22:45:13.306Z,20.55
2022-09-11T22:47:46.061Z,20.50
2022-09-11T22:50:19.333Z,20.50
2022-09-11T22:52:53.593Z,20.48
2022-09-11T22:55:26.253Z,20.43
2022-09-11T22:57:58.883Z,20.39
2022-09-11T23:00:31.738Z,20.43
2022-09-11T23:03:04.748Z,20.40
2022-09-11T23:05:54.804Z,20.43
2022-09-11T23:08:29.700Z,20.45
2022-09-11T23:11:03.245Z,20.37
2022-09-11T23:13:36.156Z,20.37
2022-09-11T23:16:11.851Z,20.36
2022-09-11T23:18:44.957Z,20.33
2022-09-11T23:21:18.438Z,20.32
2022-09-11T23:23:54.632Z,20.34
2022-09-11T23:26:28.682Z,20.27
2022-09-11T23:29:01.621Z,20.25
2022-09-11T23:31:35.212Z,20.25
2022-09-11T23:34:08.971Z,20.18
2022-09-11T23:36:41.520Z,20.18
2022-09-11T23:39:15.645Z,20.20
2022-09-11T23:41:48.219Z,20.23
2022-09-11T23:44:21.074Z,20.20
2022-09-11T23:46:53.638Z,20.14
2022-09-11T23:49:26.288Z,20.01
2022-09-11T23:51:58.832Z,19.93
2022-09-11T23:54:32.873Z,19.94
2022-09-11T23:57:05.678Z,19.90
2022-09-11T23:59:39.427Z,19.94
